Time;durP1;ratioP1;P1;durP2;ratioP2;P2;SDS_P1;SDS_P2;PMS_P1;PMS_P2;Temp;Humidity;BMP_temperature;BMP_pressure;BME280_temperature;BME280_humidity;BME280_pressure;Samples;Min_cycle;Max_cycle;Signal;HPM_P1;HPM_P2
2022/08/22 00:02:29;;;;;;;16.17;8.63;;;;;;;18.13;69.09;101551.44;5047073;28;20131;-60
2022/08/22 00:05:09;;;;;;;18.30;8.85;;;;;;;18.11;69.74;101553.19;5048509;28;20033;-60
2022/08/22 00:07:40;;;;;;;16.25;8.50;;;;;;;18.07;69.74;101559.31;5045604;28;20123;-61
2022/08/22 00:10:11;;;;;;;19.05;8.40;;;;;;;18.06;69.77;101557.56;5045373;28;20025;-61
2022/08/22 00:12:49;;;;;;;16.67;8.25;;;;;;;18.05;70.12;101547.91;5050093;28;20108;-60
2022/08/22 00:15:25;;;;;;;21.55;8.57;;;;;;;18.03;69.83;101554.91;5048679;28;20024;-60
2022/08/22 00:18:07;;;;;;;19.42;8.73;;;;;;;18.01;70.15;101557.53;5047511;28;20559;-60
2022/08/22 00:20:58;;;;;;;17.48;8.10;;;;;;;17.97;70.32;101566.31;5049117;28;20036;-60
2022/08/22 00:23:33;;;;;;;17.17;8.55;;;;;;;17.96;70.44;101558.38;5047479;28;20103;-61
2022/08/22 00:26:12;;;;;;;17.17;8.57;;;;;;;17.93;70.61;101558.38;5039494;28;20443;-61
2022/08/22 00:28:45;;;;;;;18.52;9.68;;;;;;;17.92;70.53;101556.63;5049351;28;20033;-60
2022/08/22 00:31:20;;;;;;;21.25;9.10;;;;;;;17.93;70.69;101563.66;5048380;28;20401;-60
2022/08/22 00:33:52;;;;;;;20.10;8.77;;;;;;;17.92;71.18;101552.25;5047587;28;20064;-60
2022/08/22 00:36:47;;;;;;;14.60;8.02;;;;;;;17.90;71.09;101564.50;5046944;28;20029;-59
2022/08/22 00:39:23;;;;;;;20.27;8.45;;;;;;;17.84;71.77;101553.91;5029652;28;20056;-60
2022/08/22 00:41:51;;;;;;;18.42;8.48;;;;;;;17.84;71.82;101553.91;5044894;28;20049;-61
2022/08/22 00:44:40;;;;;;;17.95;7.93;;;;;;;17.79;71.26;101551.25;5047867;28;20086;-61
2022/08/22 00:47:36;;;;;;;18.08;8.15;;;;;;;17.79;71.61;101551.25;5044524;28;20029;-61
2022/08/22 00:50:40;;;;;;;21.20;8.82;;;;;;;17.80;71.26;101553.03;5048618;28;20029;-62
2022/08/22 00:53:24;;;;;;;17.55;8.30;;;;;;;17.77;72.08;101560.03;5045303;28;20112;-60
2022/08/22 00:56:02;;;;;;;17.92;8.52;;;;;;;17.72;72.04;101560.88;5046588;28;20028;-60
2022/08/22 00:58:48;;;;;;;20.08;8.10;;;;;;;17.73;71.67;101559.16;5048987;28;20068;-60
2022/08/22 01:01:19;;;;;;;22.65;7.93;;;;;;;17.70;72.50;101560.00;5047702;28;20483;-61
2022/08/22 01:03:45;;;;;;;15.80;7.82;;;;;;;17.70;72.14;101557.38;5033204;28;20123;-60
2022/08/22 01:06:38;;;;;;;16.27;7.68;;;;;;;17.70;72.23;101559.13;5046683;28;20044;-61
2022/08/22 01:09:14;;;;;;;14.25;7.85;;;;;;;17.70;72.72;101557.38;5048382;28;20025;-60
2022/08/22 01:11:45;;;;;;;14.95;7.90;;;;;;;17.64;73.18;101559.97;5046630;28;20041;-60
2022/08/22 01:14:33;;;;;;;19.65;9.18;;;;;;;17.68;72.23;101553.84;5046353;28;20017;-61
2022/08/22 01:17:24;;;;;;;21.70;10.30;;;;;;;17.65;72.78;101555.56;5047595;28;20036;-60
2022/08/22 01:20:10;;;;;;;22.23;9.75;;;;;;;17.63;73.39;101558.22;5041961;28;20349;-61
2022/08/22 01:23:20;;;;;;;20.83;9.43;;;;;;;17.65;72.62;101552.94;5044437;28;20043;-61
2022/08/22 01:26:14;;;;;;;20.65;9.15;;;;;;;17.59;72.77;101547.66;5009117;28;20045;-60
2022/08/22 01:29:10;;;;;;;20.88;10.27;;;;;;;17.56;72.72;101551.13;5038663;28;20090;-61
2022/08/22 01:31:57;;;;;;;20.75;10.70;;;;;;;17.54;72.24;101553.75;5048617;28;20222;-60
2022/08/22 01:34:50;;;;;;;22.30;10.50;;;;;;;17.52;73.31;101557.25;5046654;28;20025;-61
2022/08/22 01:37:42;;;;;;;22.17;10.25;;;;;;;17.53;72.92;101553.75;5051153;28;20428;-61
2022/08/22 01:40:11;;;;;;;22.20;10.73;;;;;;;17.50;73.42;101548.47;5051865;28;20037;-60
2022/08/22 01:43:18;;;;;;;22.50;10.65;;;;;;;17.52;72.60;101555.53;5050452;28;20057;-60
2022/08/22 01:45:58;;;;;;;25.63;11.57;;;;;;;17.50;72.87;101544.06;5051137;28;20029;-61
2022/08/22 01:48:50;;;;;;;26.67;12.25;;;;;;;17.52;72.76;101544.97;5050378;28;20037;-60
2022/08/22 01:51:39;;;;;;;23.75;10.93;;;;;;;17.52;73.29;101546.72;5040053;28;20139;-60
2022/08/22 01:54:13;;;;;;;29.05;12.23;;;;;;;17.49;73.40;101550.19;5049291;28;20279;-60
2022/08/22 01:56:44;;;;;;;28.25;11.68;;;;;;;17.46;73.94;101542.28;5041561;28;20288;-60
2022/08/22 01:59:19;;;;;;;27.73;12.70;;;;;;;17.46;74.00;101544.91;5049803;28;20436;-60
2022/08/22 02:02:08;;;;;;;26.48;13.30;;;;;;;17.44;73.37;101543.13;5048174;28;20025;-60
2022/08/22 02:04:43;;;;;;;28.05;12.70;;;;;;;17.43;73.89;101546.66;5051708;28;20025;-60
2022/08/22 02:07:12;;;;;;;28.70;14.38;;;;;;;17.38;74.34;101544.00;5045428;28;20405;-61
2022/08/22 02:09:38;;;;;;;37.88;14.50;;;;;;;17.38;73.85;101550.16;5051370;28;20032;-60
2022/08/22 02:12:28;;;;;;;30.77;15.10;;;;;;;17.41;73.34;101543.13;5049408;28;20036;-60
2022/08/22 02:15:24;;;;;;;31.17;14.73;;;;;;;17.39;73.64;101540.47;5034091;28;20292;-60
2022/08/22 02:18:05;;;;;;;30.30;14.50;;;;;;;17.38;73.63;101542.25;5032631;28;20053;-61
2022/08/22 02:21:24;;;;;;;30.08;14.43;;;;;;;17.38;74.04;101541.38;5048818;28;20072;-61
2022/08/22 02:24:00;;;;;;;30.60;14.48;;;;;;;17.37;74.49;101539.59;4965812;28;20038;-60
2022/08/22 02:26:41;;;;;;;31.38;14.38;;;;;;;17.34;74.46;101537.81;5033044;28;20051;-60
2022/08/22 02:29:10;;;;;;;33.45;14.52;;;;;;;17.31;75.10;101535.16;5050035;28;20507;-60
2022/08/22 02:31:41;;;;;;;;;;;;;;;17.40;72.59;101536.97;5051320;28;20025;-60
2022/08/22 02:34:47;;;;;;;29.17;13.07;;;;;;;17.35;73.90;101530.78;5050011;28;20291;-60
2022/08/22 02:37:20;;;;;;;28.00;14.20;;;;;;;17.32;74.63;101533.41;5048414;28;20037;-60
2022/08/22 02:39:48;;;;;;;29.25;14.43;;;;;;;17.29;75.31;101528.13;5050296;28;20392;-60
2022/08/22 02:42:23;;;;;;;30.83;14.15;;;;;;;17.28;74.92;101534.25;5047970;28;20049;-60
2022/08/22 02:45:10;;;;;;;28.08;14.45;;;;;;;17.28;74.57;101526.34;5041808;28;20033;-60
2022/08/22 02:47:59;;;;;;;27.73;14.55;;;;;;;17.29;74.62;101528.13;5045813;28;20061;-60
2022/08/22 02:50:42;;;;;;;24.25;13.38;;;;;;;17.29;75.35;101528.13;5040349;28;20025;-60
2022/08/22 02:53:40;;;;;;;24.10;12.57;;;;;;;17.31;74.20;101531.66;5031524;28;20439;-61
2022/08/22 02:56:16;;;;;;;20.73;13.38;;;;;;;17.31;75.32;101531.66;5025331;28;20040;-60
2022/08/22 02:58:54;;;;;;;22.83;12.73;;;;;;;17.28;75.01;101534.25;5050233;28;20564;-60
2022/08/22 03:01:32;;;;;;;27.85;13.57;;;;;;;17.26;74.97;101525.47;5045793;28;20025;-60
2022/08/22 03:04:22;;;;;;;29.63;14.00;;;;;;;17.26;75.10;101528.09;5038557;28;20036;-60
2022/08/22 03:07:13;;;;;;;21.17;11.93;;;;;;;17.25;75.13;101528.97;5046717;28;20405;-60
2022/08/22 03:09:43;;;;;;;24.23;12.07;;;;;;;17.21;75.84;101528.94;5050313;28;20032;-60
2022/08/22 03:12:24;;;;;;;23.13;12.25;;;;;;;17.21;74.85;101533.34;5049113;28;20050;-60
2022/08/22 03:15:12;;;;;;;18.60;11.77;;;;;;;17.21;75.25;101538.63;5046393;28;20051;-61
2022/08/22 03:17:49;;;;;;;19.02;10.88;;;;;;;17.20;75.56;101532.44;5043164;28;20028;-61
2022/08/22 03:20:51;;;;;;;18.00;11.18;;;;;;;17.21;74.87;101526.31;5048842;28;20112;-60
2022/08/22 03:23:24;;;;;;;20.00;10.93;;;;;;;17.19;75.31;101517.53;5048389;28;20463;-60
2022/08/22 03:26:02;;;;;;;15.63;10.18;;;;;;;17.21;75.66;101515.78;5047603;28;20159;-60
2022/08/22 03:28:54;;;;;;;16.48;10.43;;;;;;;17.20;75.37;101503.47;5049723;28;20041;-60
2022/08/22 03:31:22;;;;;;;16.35;10.45;;;;;;;17.17;75.63;101506.09;5029268;28;20067;-60
2022/08/22 03:34:15;;;;;;;17.77;11.00;;;;;;;17.18;75.00;101499.97;5046312;28;20104;-60
2022/08/22 03:36:56;;;;;;;19.00;10.68;;;;;;;17.13;75.25;101500.78;5049705;28;20094;-60
2022/08/22 03:39:41;;;;;;;17.20;11.18;;;;;;;17.10;75.23;101503.41;5046244;28;20155;-60
2022/08/22 03:42:41;;;;;;;17.50;10.90;;;;;;;17.07;75.20;101504.25;5041202;28;20074;-61
2022/08/22 03:45:31;;;;;;;16.33;10.25;;;;;;;17.07;74.86;101504.25;5046551;28;20025;-60
2022/08/22 03:48:12;;;;;;;15.90;9.77;;;;;;;17.06;75.49;101499.91;5047503;28;20033;-61
2022/08/22 03:51:05;;;;;;;15.02;9.27;;;;;;;17.06;74.92;101504.25;5048049;28;20070;-60
2022/08/22 03:53:31;;;;;;;14.73;8.75;;;;;;;17.05;75.08;101500.75;5049048;28;20025;-60
2022/08/22 03:56:33;;;;;;;12.98;8.90;;;;;;;17.06;74.54;101492.00;5047887;28;20513;-60
2022/08/22 03:59:12;;;;;;;12.50;8.38;;;;;;;17.04;74.45;101499.84;5031187;28;20511;-60
2022/08/22 04:02:05;;;;;;;;;;;;;;;17.11;73.28;101498.16;5045280;28;20017;-60
2022/08/22 04:04:51;;;;;;;12.90;8.77;;;;;;;17.04;73.83;101491.09;5048447;28;20024;-60
2022/08/22 04:07:58;;;;;;;14.73;9.00;;;;;;;17.03;73.98;101494.56;5045032;28;20021;-60
2022/08/22 04:10:48;;;;;;;14.50;9.38;;;;;;;16.96;73.93;101498.94;5035535;28;20089;-60
2022/08/22 04:13:48;;;;;;;12.77;8.57;;;;;;;16.93;74.14;101498.00;5047550;28;20075;-60
2022/08/22 04:16:25;;;;;;;13.07;8.30;;;;;;;16.90;74.02;101504.16;5046685;28;20041;-60
2022/08/22 04:19:02;;;;;;;13.55;8.43;;;;;;;16.85;74.10;101506.69;5044691;28;20029;-60
2022/08/22 04:21:36;;;;;;;12.68;8.40;;;;;;;16.85;74.45;101511.97;5038082;28;20036;-60
2022/08/22 04:24:14;;;;;;;12.93;8.40;;;;;;;16.81;74.28;101510.16;5042798;28;20025;-60
2022/08/22 04:26:59;;;;;;;15.27;8.93;;;;;;;16.77;74.41;101513.66;5049351;28;20029;-60
2022/08/22 04:29:38;;;;;;;13.07;8.48;;;;;;;16.72;74.66;101517.13;5045158;28;20091;-60
2022/08/22 04:32:21;;;;;;;11.82;8.15;;;;;;;16.72;74.10;101517.13;5046230;28;20028;-60
2022/08/22 04:35:01;;;;;;;14.65;8.80;;;;;;;16.66;74.54;101516.19;5040201;28;20033;-61
2022/08/22 04:37:57;;;;;;;11.63;8.00;;;;;;;16.65;74.56;101519.66;5046267;28;20089;-60
2022/08/22 04:40:29;;;;;;;14.32;9.18;;;;;;;16.63;75.55;101508.25;5047146;28;20029;-60
2022/08/22 04:42:57;;;;;;;12.77;8.38;;;;;;;16.62;75.18;101508.25;5045413;28;21340;-60
2022/08/22 04:45:32;;;;;;;13.17;8.73;;;;;;;16.60;75.77;101504.75;5049712;28;20055;-61
2022/08/22 04:48:15;;;;;;;11.75;8.70;;;;;;;16.59;75.82;101513.50;5042254;28;20295;-61
2022/08/22 04:50:53;;;;;;;14.52;9.57;;;;;;;16.57;75.88;101513.47;5046096;28;20033;-60
2022/08/22 04:53:31;;;;;;;13.00;8.73;;;;;;;16.54;76.16;101516.09;5043085;28;20025;-60
2022/08/22 04:56:24;;;;;;;12.43;8.82;;;;;;;16.52;76.39;101513.44;5048144;28;20505;-60
2022/08/22 04:58:59;;;;;;;15.93;9.50;;;;;;;16.53;76.60;101519.56;5046528;28;20488;-60
2022/08/22 05:01:46;;;;;;;14.05;8.98;;;;;;;16.52;76.40;101529.22;5046485;28;20040;-60
2022/08/22 05:04:34;;;;;;;13.35;8.80;;;;;;;16.52;76.33;101528.31;5046857;28;20432;-60
2022/08/22 05:07:07;;;;;;;12.10;8.37;;;;;;;16.51;76.22;101532.72;5048140;28;20056;-61
2022/08/22 05:09:38;;;;;;;13.82;8.88;;;;;;;16.51;76.63;101526.56;5046809;28;20033;-61
2022/08/22 05:12:10;;;;;;;13.00;9.18;;;;;;;16.52;76.80;101525.69;5039064;28;20241;-60
2022/08/22 05:14:42;;;;;;;13.52;9.23;;;;;;;16.54;77.14;101530.97;5051180;28;20037;-61
2022/08/22 05:17:11;;;;;;;13.45;9.73;;;;;;;16.54;76.41;101528.34;5052922;28;20044;-60
2022/08/22 05:19:43;;;;;;;15.15;10.45;;;;;;;16.51;77.62;101524.81;5044450;28;20021;-60
2022/08/22 05:22:17;;;;;;;16.17;10.60;;;;;;;16.55;76.88;101527.47;5050071;28;20078;-60
2022/08/22 05:24:47;;;;;;;13.15;10.30;;;;;;;16.55;77.82;101532.75;5048456;28;20028;-61
2022/08/22 05:27:21;;;;;;;12.90;8.88;;;;;;;16.55;77.85;101525.72;5052209;28;20129;-61
2022/08/22 05:29:50;;;;;;;11.73;8.85;;;;;;;16.56;78.50;101529.25;5051277;28;20540;-61
2022/08/22 05:32:22;;;;;;;12.20;9.35;;;;;;;16.55;78.09;101530.09;5052147;28;20028;-60
2022/08/22 05:34:52;;;;;;;12.48;9.57;;;;;;;16.57;78.57;101539.78;5050792;28;20032;-60
2022/08/22 05:37:42;;;;;;;12.55;9.57;;;;;;;16.58;78.87;101530.13;5051541;28;20075;-60
2022/08/22 05:40:15;;;;;;;14.52;9.52;;;;;;;16.59;79.32;101543.31;5051630;28;20063;-60
2022/08/22 05:42:42;;;;;;;14.98;10.30;;;;;;;16.60;79.68;101544.22;5044993;28;20049;-60
2022/08/22 05:45:08;;;;;;;13.80;9.55;;;;;;;16.62;79.53;101539.81;5050338;28;20078;-60
2022/08/22 05:47:41;;;;;;;15.02;10.80;;;;;;;16.62;80.41;101545.09;5029836;28;20571;-60
2022/08/22 05:50:19;;;;;;;14.10;10.85;;;;;;;16.64;79.80;101538.97;5044863;28;20135;-60
2022/08/22 05:53:11;;;;;;;16.65;10.90;;;;;;;16.66;79.95;101549.53;5044960;28;20024;-60
2022/08/22 05:55:49;;;;;;;13.95;10.75;;;;;;;16.66;80.24;101542.50;5038902;28;20508;-60
2022/08/22 05:58:38;;;;;;;17.13;11.95;;;;;;;16.68;80.41;101534.63;5048617;28;20111;-60
2022/08/22 06:01:24;;;;;;;17.15;11.90;;;;;;;16.72;80.32;101539.03;5048583;28;20111;-60
2022/08/22 06:04:07;;;;;;;16.25;11.90;;;;;;;16.72;80.09;101525.88;5050578;28;20064;-60
2022/08/22 06:06:38;;;;;;;16.80;12.55;;;;;;;16.73;80.58;101535.56;5038509;28;20148;-60
2022/08/22 06:09:13;;;;;;;17.20;12.80;;;;;;;16.75;80.12;101536.44;5048844;28;20024;-61
2022/08/22 06:11:44;;;;;;;17.88;12.98;;;;;;;16.78;80.57;101535.59;5046260;28;20044;-60
2022/08/22 06:14:37;;;;;;;18.33;14.18;;;;;;;16.82;80.11;101537.38;5044693;28;20486;-60
2022/08/22 06:17:14;;;;;;;18.95;14.20;;;;;;;16.85;79.89;101550.56;5050405;28;20017;-60
2022/08/22 06:19:45;;;;;;;19.02;15.52;;;;;;;16.86;81.04;101544.44;5049534;28;20037;-59
2022/08/22 06:22:17;;;;;;;20.75;14.95;;;;;;;16.89;80.83;101547.13;5041491;28;20026;-60
2022/08/22 06:24:43;;;;;;;24.27;16.73;;;;;;;16.92;81.21;101546.28;5045910;28;20082;-60
2022/08/22 06:27:13;;;;;;;22.60;17.23;;;;;;;16.95;80.64;101551.56;5027214;28;20033;-60
2022/08/22 06:29:47;;;;;;;18.67;14.93;;;;;;;16.98;79.92;101548.97;5049955;28;20039;-59
2022/08/22 06:32:19;;;;;;;24.13;17.10;;;;;;;17.00;79.44;101545.47;5022205;28;20396;-60
2022/08/22 06:34:45;;;;;;;23.67;17.30;;;;;;;17.03;81.27;101548.13;5043167;28;20055;-60
2022/08/22 06:37:22;;;;;;;22.10;16.63;;;;;;;17.08;80.85;101555.19;5050925;28;20028;-59
2022/08/22 06:39:53;;;;;;;21.27;18.02;;;;;;;17.09;81.75;101551.66;5042605;28;20033;-60
2022/08/22 06:42:24;;;;;;;23.13;16.95;;;;;;;17.14;81.03;101557.88;5052183;28;20049;-60
2022/08/22 06:44:58;;;;;;;21.85;17.42;;;;;;;17.16;81.49;101553.47;5040219;28;20036;-60
2022/08/22 06:47:26;;;;;;;20.85;16.80;;;;;;;17.20;81.65;101566.69;5048068;28;20021;-61
2022/08/22 06:49:58;;;;;;;21.35;17.13;;;;;;;17.22;81.70;101561.47;5030248;28;20041;-61
2022/08/22 06:52:27;;;;;;;20.75;16.65;;;;;;;17.26;81.40;101564.97;5049147;28;20029;-61
2022/08/22 06:55:04;;;;;;;20.08;16.02;;;;;;;17.29;80.49;101562.38;5030495;28;20030;-60
2022/08/22 06:57:34;;;;;;;20.33;15.98;;;;;;;17.32;81.04;101571.19;5038352;28;20024;-59
2022/08/22 07:00:07;;;;;;;23.85;16.05;;;;;;;17.35;82.10;101578.22;5045600;28;20107;-60
2022/08/22 07:02:38;;;;;;;19.42;16.38;;;;;;;17.38;81.13;101575.63;5044198;28;20029;-60
2022/08/22 07:05:08;;;;;;;20.77;16.92;;;;;;;17.41;82.30;101574.72;5045136;28;20032;-59
2022/08/22 07:07:34;;;;;;;24.13;17.63;;;;;;;17.43;81.89;101576.50;5050556;28;20029;-60
2022/08/22 07:10:00;;;;;;;22.92;17.23;;;;;;;17.47;81.67;101580.94;5045961;28;20369;-60
2022/08/22 07:12:34;;;;;;;23.08;17.50;;;;;;;17.49;81.12;101578.31;5033236;28;20027;-60
2022/08/22 07:15:17;;;;;;;22.20;17.67;;;;;;;17.51;81.00;101577.47;5048030;28;20392;-60
2022/08/22 07:17:50;;;;;;;23.02;19.15;;;;;;;17.55;82.13;101580.97;5039218;28;20021;-60
2022/08/22 07:20:32;;;;;;;22.10;16.75;;;;;;;17.58;80.62;101580.13;5047707;28;20021;-60
2022/08/22 07:23:03;;;;;;;22.17;17.05;;;;;;;17.60;80.12;101583.63;5050888;28;20135;-61
2022/08/22 07:25:30;;;;;;;21.70;17.60;;;;;;;17.62;81.23;101584.56;5050897;28;20036;-60
2022/08/22 07:28:24;;;;;;;20.55;16.33;;;;;;;17.65;80.32;101580.16;5050684;28;20036;-60
2022/08/22 07:30:56;;;;;;;23.55;16.88;;;;;;;17.67;79.76;101583.72;5050763;28;20031;-61
2022/08/22 07:33:47;;;;;;;18.83;15.32;;;;;;;17.71;79.33;101574.06;5049758;28;20020;-60
2022/08/22 07:36:24;;;;;;;19.77;15.32;;;;;;;17.74;80.16;101574.06;5036478;28;20035;-60
2022/08/22 07:39:12;;;;;;;24.05;16.60;;;;;;;17.77;79.81;101567.94;5050477;28;20250;-60
2022/08/22 07:42:10;;;;;;;20.92;15.13;;;;;;;17.83;80.30;101565.31;5045548;28;20056;-60
2022/08/22 07:44:47;;;;;;;21.17;17.00;;;;;;;17.87;80.07;101562.75;5050810;28;20020;-60
2022/08/22 07:47:16;;;;;;;18.27;15.30;;;;;;;17.93;79.41;101558.38;5032474;28;20499;-61
2022/08/22 07:49:41;;;;;;;;;;;;;;;18.00;79.19;101549.63;5050853;28;20539;-61
2022/08/22 07:52:10;;;;;;;25.27;17.80;;;;;;;18.05;81.03;101553.19;5050216;28;19956;-60
2022/08/22 07:54:47;;;;;;;25.33;18.83;;;;;;;18.14;80.10;101555.84;5050542;28;20033;-60
2022/08/22 07:57:20;;;;;;;24.67;19.40;;;;;;;18.22;80.99;101553.25;5050065;28;20495;-60
2022/08/22 07:59:49;;;;;;;26.52;20.67;;;;;;;18.30;80.67;101547.97;5050041;28;20266;-60
2022/08/22 08:02:17;;;;;;;23.70;18.77;;;;;;;18.37;80.17;101553.28;5049975;28;20111;-60
2022/08/22 08:04:43;;;;;;;25.83;20.33;;;;;;;18.45;78.91;101548.03;5050158;28;20074;-60
2022/08/22 08:07:13;;;;;;;29.08;20.05;;;;;;;18.54;79.39;101548.03;5050222;28;20021;-60
2022/08/22 08:09:48;;;;;;;25.02;21.02;;;;;;;18.61;79.32;101546.31;5046816;28;20104;-60
2022/08/22 08:12:17;;;;;;;26.50;19.38;;;;;;;18.71;79.31;101542.78;5048769;28;20023;-60
2022/08/22 08:14:48;;;;;;;24.48;16.77;;;;;;;18.83;76.97;101541.91;5039681;28;20036;-60
2022/08/22 08:17:20;;;;;;;24.00;16.98;;;;;;;18.93;77.48;101535.78;5040254;28;20097;-60
2022/08/22 08:19:46;;;;;;;23.10;18.27;;;;;;;19.02;77.12;101534.03;5046671;28;20500;-59
2022/08/22 08:22:18;;;;;;;24.05;17.27;;;;;;;19.10;77.58;101527.88;5043226;28;20033;-60
2022/08/22 08:24:45;;;;;;;25.67;18.20;;;;;;;19.16;77.21;101534.91;5031428;28;20392;-60
2022/08/22 08:30:03;;;;;;;24.50;17.90;;;;;;;19.27;76.84;101530.47;5050002;28;20067;-60
2022/08/22 08:32:33;;;;;;;27.25;18.50;;;;;;;19.31;76.49;101526.06;5048750;28;20075;-60
2022/08/22 08:35:22;;;;;;;24.15;18.05;;;;;;;19.38;75.88;101524.28;5048033;28;20029;-59
2022/08/22 08:38:19;;;;;;;21.95;16.52;;;;;;;19.45;75.98;101528.66;5048105;28;20028;-60
2022/08/22 08:41:06;;;;;;;25.38;16.77;;;;;;;19.51;76.51;101538.34;5038853;28;20041;-60
2022/08/22 08:43:50;;;;;;;21.63;16.52;;;;;;;19.58;76.46;101538.34;5047608;28;20130;-59
2022/08/22 08:46:41;;;;;;;24.75;17.48;;;;;;;19.63;75.47;101533.03;5050984;28;20112;-60
2022/08/22 08:49:22;;;;;;;24.45;18.45;;;;;;;19.72;75.66;101532.13;5051696;28;20024;-60
2022/08/22 08:52:10;;;;;;;19.98;16.02;;;;;;;19.83;74.93;101525.09;5041428;28;20024;-61
2022/08/22 08:54:54;;;;;;;24.13;15.80;;;;;;;19.90;73.94;101526.81;5051580;28;20032;-60
2022/08/22 08:57:51;;;;;;;20.75;15.82;;;;;;;19.95;74.29;101519.72;5053303;28;20040;-60
2022/08/22 09:00:31;;;;;;;20.30;14.20;;;;;;;20.00;73.18;101519.69;5053409;28;20021;-61
2022/08/22 09:03:28;;;;;;;20.80;15.40;;;;;;;20.03;72.62;101521.44;5053484;28;20025;-61
2022/08/22 09:06:32;;;;;;;20.42;15.57;;;;;;;20.13;73.33;101517.88;5053162;28;20547;-61
2022/08/22 09:09:00;;;;;;;17.80;14.23;;;;;;;20.18;72.27;101521.38;5047658;28;20033;-55
2022/08/22 09:11:29;;;;;;;23.75;14.73;;;;;;;20.22;72.98;101520.50;5052929;28;20024;-55
2022/08/22 09:14:25;;;;;;;18.45;13.07;;;;;;;20.28;72.33;101516.94;5053162;28;20040;-55
2022/08/22 09:17:20;;;;;;;31.23;21.88;;;;;;;20.35;71.86;101512.47;5052883;28;20033;-56
2022/08/22 09:19:54;;;;;;;17.83;14.43;;;;;;;20.37;70.92;101510.69;5053216;28;20025;-55
2022/08/22 09:22:56;;;;;;;19.25;13.48;;;;;;;20.42;70.91;101509.78;5053023;28;20029;-55
2022/08/22 09:25:26;;;;;;;16.83;11.40;;;;;;;20.43;70.24;101508.88;5053171;28;20145;-55
2022/08/22 09:28:17;;;;;;;16.75;11.15;;;;;;;20.49;70.64;101505.31;5053061;28;20025;-55
2022/08/22 09:31:01;;;;;;;13.15;9.70;;;;;;;20.50;71.54;101507.06;5053018;28;20025;-55
2022/08/22 09:33:46;;;;;;;15.18;11.10;;;;;;;20.52;71.38;101509.72;5053064;28;20021;-55
2022/08/22 09:36:25;;;;;;;16.52;9.23;;;;;;;20.56;69.56;101512.31;5052570;28;20389;-55
2022/08/22 09:38:57;;;;;;;11.70;8.85;;;;;;;20.55;68.46;101514.97;5035044;28;20032;-60
2022/08/22 09:41:28;;;;;;;12.65;10.05;;;;;;;20.59;69.79;101512.28;5034917;28;20111;-61
2022/08/22 09:44:17;;;;;;;13.10;8.00;;;;;;;20.61;68.86;101510.53;5052810;28;20060;-60
2022/08/22 09:47:10;;;;;;;12.00;7.15;;;;;;;20.69;66.73;101506.97;5052745;28;20025;-61
2022/08/22 09:49:50;;;;;;;12.00;7.53;;;;;;;20.72;65.72;101509.59;5052751;28;20052;-61
2022/08/22 09:52:24;;;;;;;12.80;6.68;;;;;;;20.77;66.12;101513.06;5043663;28;20071;-60
2022/08/22 09:55:02;;;;;;;14.10;6.78;;;;;;;20.80;66.19;101515.72;5043824;28;20021;-60
2022/08/22 09:57:50;;;;;;;11.60;7.32;;;;;;;20.83;67.15;101510.38;5043646;28;20070;-60
2022/08/22 10:00:24;;;;;;;10.88;7.05;;;;;;;20.87;65.15;101504.19;5043167;28;20032;-60
2022/08/22 10:02:58;;;;;;;11.25;6.75;;;;;;;20.91;66.27;101511.19;5045865;28;20102;-60
2022/08/22 10:05:42;;;;;;;8.88;6.63;;;;;;;20.97;65.58;101504.94;5047960;28;20033;-60
2022/08/22 10:08:29;;;;;;;13.25;7.30;;;;;;;21.04;63.97;101500.50;5034238;28;20517;-60
2022/08/22 10:10:54;;;;;;;11.15;6.78;;;;;;;21.11;63.37;101499.53;5052466;28;20115;-60
2022/08/22 10:13:58;;;;;;;12.40;7.57;;;;;;;21.17;64.03;101500.38;5052107;28;20658;-61
2022/08/22 10:16:41;;;;;;;11.20;7.07;;;;;;;21.24;64.76;101493.22;5052277;28;20263;-61
2022/08/22 10:19:28;;;;;;;11.82;7.93;;;;;;;21.33;63.12;101489.59;5052115;28;20496;-61
2022/08/22 10:22:16;;;;;;;13.57;7.70;;;;;;;21.43;63.06;101495.66;5052071;28;20048;-61
2022/08/22 10:25:09;;;;;;;13.88;7.35;;;;;;;21.50;62.68;101494.72;5034215;28;20132;-61
2022/08/22 10:27:43;;;;;;;13.65;7.85;;;;;;;21.59;62.04;101486.66;5051712;28;20115;-61
2022/08/22 10:30:13;;;;;;;12.35;7.80;;;;;;;21.63;61.29;101483.09;5034115;28;20025;-61
2022/08/22 10:33:02;;;;;;;12.80;8.52;;;;;;;21.73;62.34;101481.19;5051623;28;20028;-61
2022/08/22 10:35:36;;;;;;;14.93;10.48;;;;;;;21.81;61.11;101481.09;5051839;28;20032;-61
2022/08/22 10:38:25;;;;;;;12.07;8.73;;;;;;;21.89;61.66;101473.91;5051750;28;20049;-61
2022/08/22 10:40:56;;;;;;;16.52;9.30;;;;;;;21.94;61.26;101477.41;5051375;28;20103;-62
2022/08/22 10:43:54;;;;;;;12.52;8.43;;;;;;;22.03;62.26;101473.75;5046877;28;20037;-62
2022/08/22 10:46:33;;;;;;;11.98;7.18;;;;;;;22.12;63.13;101467.44;5043244;28;20028;-60
2022/08/22 10:49:00;;;;;;;;;;;;;;;22.21;62.83;101464.63;5045403;28;20108;-60
2022/08/22 10:51:46;;;;;;;12.65;7.15;;;;;;;22.30;60.72;101460.94;5044217;28;20054;-60
2022/08/22 10:54:38;;;;;;;10.98;7.38;;;;;;;22.43;60.28;101459.03;5043042;28;20057;-61
2022/08/22 10:57:04;;;;;;;11.48;6.43;;;;;;;22.58;60.94;101454.34;5043586;28;20515;-60
2022/08/22 10:59:44;;;;;;;12.93;7.20;;;;;;;22.72;59.61;101466.50;5044630;28;20056;-61
2022/08/22 11:02:22;;;;;;;11.18;6.00;;;;;;;22.81;58.60;101454.84;5048762;28;20279;-61
2022/08/22 11:05:05;;;;;;;12.40;5.37;;;;;;;22.87;55.41;101454.72;5051516;28;20074;-60
2022/08/22 11:07:42;;;;;;;10.52;5.50;;;;;;;22.95;56.05;101457.25;5032997;28;20020;-60
2022/08/22 11:10:24;;;;;;;10.52;5.50;;;;;;;22.97;57.11;101455.44;5049603;28;20024;-60
2022/08/22 11:13:04;;;;;;;10.25;6.50;;;;;;;23.05;56.72;101459.69;5049197;28;20146;-60
2022/08/22 11:15:55;;;;;;;11.02;5.80;;;;;;;23.07;55.72;101463.22;5049115;28;20485;-61
2022/08/22 11:18:28;;;;;;;10.70;6.00;;;;;;;23.07;52.46;101457.91;5036208;28;20021;-60
2022/08/22 11:21:30;;;;;;;8.82;5.45;;;;;;;23.08;56.44;101456.13;5049260;28;20357;-60
2022/08/22 11:24:15;;;;;;;9.32;5.70;;;;;;;23.12;55.52;101449.00;5049230;28;20048;-60
2022/08/22 11:26:46;;;;;;;7.90;4.57;;;;;;;23.17;55.33;101447.97;5050695;28;20032;-60
2022/08/22 11:29:37;;;;;;;7.60;4.40;;;;;;;23.22;53.80;101455.91;5050679;28;20515;-60
2022/08/22 11:32:33;;;;;;;10.55;4.50;;;;;;;23.27;55.39;101449.59;5050873;28;20037;-60
2022/08/22 11:35:14;;;;;;;9.57;4.18;;;;;;;23.31;54.05;101449.53;5050454;28;20173;-60
2022/08/22 11:38:09;;;;;;;10.65;4.40;;;;;;;23.36;51.89;101453.84;5050478;28;20029;-60
2022/08/22 11:41:13;;;;;;;9.02;4.28;;;;;;;23.38;53.78;101441.38;5048803;28;20037;-60
2022/08/22 11:43:49;;;;;;;8.48;3.97;;;;;;;23.38;52.41;101448.50;5050508;28;20036;-59
2022/08/22 11:46:23;;;;;;;8.48;3.85;;;;;;;23.44;53.18;101443.91;5050305;28;20263;-60
2022/08/22 11:49:02;;;;;;;8.05;4.43;;;;;;;23.46;51.23;101437.69;5050598;28;20027;-60
2022/08/22 11:51:49;;;;;;;10.27;4.43;;;;;;;23.47;51.33;101437.66;5050586;28;20551;-60
2022/08/22 11:54:34;;;;;;;9.57;4.30;;;;;;;23.51;53.73;101438.47;5050064;28;20025;-60
2022/08/22 11:57:28;;;;;;;8.38;3.97;;;;;;;23.53;52.17;101437.53;5050130;28;20021;-60
2022/08/22 12:00:17;;;;;;;8.65;4.03;;;;;;;23.57;53.77;101436.56;5039574;28;20508;-60
2022/08/22 12:02:43;;;;;;;7.25;4.25;;;;;;;23.59;49.52;101429.44;5050140;28;20021;-61
2022/08/22 12:05:21;;;;;;;9.53;4.13;;;;;;;23.58;51.70;101434.78;5050150;28;20039;-60
2022/08/22 12:08:16;;;;;;;7.78;3.90;;;;;;;23.58;50.13;101433.00;5050021;28;20131;-60
2022/08/22 12:10:48;;;;;;;8.48;4.50;;;;;;;23.56;50.64;101433.91;5012460;28;20044;-60
2022/08/22 12:13:44;;;;;;;7.90;4.55;;;;;;;23.58;52.44;101443.63;5049893;28;20049;-60
2022/08/22 12:16:23;;;;;;;8.50;4.13;;;;;;;23.54;50.61;101433.09;5037458;28;20017;-60
2022/08/22 12:18:48;;;;;;;;;;;;;;;23.63;53.36;101432.03;5049787;28;20132;-60